createdAt,value
2023-04-22T00:01:15.308Z,5.00
2023-04-22T00:04:03.322Z,4.90
2023-04-22T00:06:51.461Z,4.80
2023-04-22T00:09:40.610Z,4.70
2023-04-22T00:12:30.000Z,4.70
2023-04-22T00:15:20.320Z,4.60
2023-04-22T00:18:13.837Z,4.60
2023-04-22T00:21:01.900Z,4.60
2023-04-22T00:23:49.797Z,4.50
2023-04-22T00:26:38.563Z,4.50
2023-04-22T00:29:27.040Z,4.40
2023-04-22T00:32:14.715Z,4.40
2023-04-22T00:35:02.233Z,4.40
2023-04-22T00:37:50.163Z,4.30
2023-04-22T00:40:37.574Z,4.20
2023-04-22T00:43:26.574Z,4.20
2023-04-22T00:46:15.389Z,4.20
2023-04-22T00:49:03.989Z,4.10
2023-04-22T00:51:51.269Z,4.10
2023-04-22T00:54:39.341Z,4.10
2023-04-22T00:57:28.219Z,4.10
2023-04-22T01:00:20.174Z,4.00
2023-04-22T01:03:08.493Z,4.00
2023-04-22T01:05:57.199Z,4.00
2023-04-22T01:08:44.920Z,4.00
2023-04-22T01:11:32.579Z,3.90
2023-04-22T01:14:20.166Z,3.90
2023-04-22T01:17:11.065Z,3.90
2023-04-22T01:19:59.995Z,3.90
2023-04-22T01:22:50.326Z,3.90
2023-04-22T01:25:39.144Z,3.90
2023-04-22T01:28:27.536Z,3.90
2023-04-22T01:31:16.707Z,4.00
2023-04-22T01:34:04.557Z,3.90
2023-04-22T01:36:52.343Z,3.90
2023-04-22T01:39:40.559Z,3.80
2023-04-22T01:42:30.540Z,3.80
2023-04-22T01:45:18.594Z,3.70
2023-04-22T01:48:07.499Z,3.70
2023-04-22T01:50:55.201Z,3.70
2023-04-22T01:53:42.867Z,3.70
2023-04-22T01:56:30.429Z,3.60
2023-04-22T01:59:19.134Z,3.60
2023-04-22T02:02:09.234Z,3.60
2023-04-22T02:04:57.142Z,3.50
2023-04-22T02:07:44.892Z,3.50
2023-04-22T02:10:36.769Z,3.40
2023-04-22T02:13:24.367Z,3.40
2023-04-22T02:16:13.261Z,3.40
2023-04-22T02:19:01.350Z,3.40
2023-04-22T02:21:49.011Z,3.40
2023-04-22T02:24:37.048Z,3.30
2023-04-22T02:27:24.762Z,3.30
2023-04-22T02:30:13.413Z,3.20
2023-04-22T02:33:03.208Z,3.20
2023-04-22T02:35:50.685Z,3.10
2023-04-22T02:38:39.507Z,3.10
2023-04-22T02:41:27.974Z,3.00
2023-04-22T02:44:15.779Z,3.00
2023-04-22T02:47:04.872Z,3.00
2023-04-22T02:49:54.352Z,3.00
2023-04-22T02:52:42.151Z,3.00
2023-04-22T02:55:29.784Z,2.90
2023-04-22T02:58:17.193Z,2.90
2023-04-22T03:01:04.726Z,2.90
2023-04-22T03:03:52.518Z,2.90
2023-04-22T03:06:44.896Z,2.90
2023-04-22T03:09:32.572Z,2.90
2023-04-22T03:12:20.031Z,2.80
2023-04-22T03:15:08.706Z,2.80
2023-04-22T03:17:56.692Z,2.80
2023-04-22T03:20:44.927Z,2.80
2023-04-22T03:23:33.782Z,2.70
2023-04-22T03:26:22.018Z,2.60
2023-04-22T03:29:10.126Z,2.60
2023-04-22T03:31:57.604Z,2.60
2023-04-22T03:34:45.718Z,2.60
2023-04-22T03:37:33.797Z,2.50
2023-04-22T03:40:23.788Z,2.50
2023-04-22T03:43:11.569Z,2.50
2023-04-22T03:46:00.741Z,2.50
2023-04-22T03:48:50.585Z,2.50
2023-04-22T03:51:46.940Z,2.50
2023-04-22T03:54:38.462Z,2.50
2023-04-22T03:57:27.609Z,2.50
2023-04-22T04:00:16.468Z,2.40
2023-04-22T04:03:10.156Z,2.40
2023-04-22T04:05:58.232Z,2.50
2023-04-22T04:08:47.695Z,2.50
2023-04-22T04:11:35.700Z,2.50
2023-04-22T04:14:25.521Z,2.60
2023-04-22T04:17:14.187Z,2.60
2023-04-22T04:20:02.372Z,2.60
2023-04-22T04:22:51.187Z,2.60
2023-04-22T04:25:39.179Z,2.70
2023-04-22T04:28:34.535Z,2.80
2023-04-22T04:31:24.972Z,2.90
2023-04-22T04:34:14.095Z,3.00
2023-04-22T04:37:02.057Z,3.10
2023-04-22T04:39:59.356Z,3.20
2023-04-22T04:42:55.767Z,3.40
2023-04-22T04:45:48.941Z,3.50
2023-04-22T04:48:46.675Z,3.70
2023-04-22T04:51:34.432Z,3.80
2023-04-22T04:54:22.507Z,4.00
2023-04-22T04:57:10.243Z,4.10
2023-04-22T04:59:59.197Z,4.30
2023-04-22T05:02:47.425Z,4.40
2023-04-22T05:05:37.121Z,4.70
2023-04-22T05:08:24.699Z,4.80
2023-04-22T05:11:16.193Z,5.00
2023-04-22T05:14:07.551Z,5.20
2023-04-22T05:17:01.162Z,5.50
2023-04-22T05:19:49.754Z,5.70
2023-04-22T05:22:38.574Z,6.00
2023-04-22T05:25:26.154Z,6.20
2023-04-22T05:28:20.294Z,6.50
2023-04-22T05:31:12.577Z,6.80
2023-04-22T05:34:00.448Z,7.00
2023-04-22T05:36:48.189Z,7.30
2023-04-22T05:39:37.665Z,7.60
2023-04-22T05:42:28.440Z,7.80
2023-04-22T05:45:16.665Z,8.00
2023-04-22T05:48:04.908Z,8.20
2023-04-22T05:50:58.084Z,8.50
2023-04-22T05:53:48.299Z,8.70
2023-04-22T05:56:37.565Z,8.90
2023-04-22T05:59:24.977Z,9.20
2023-04-22T06:02:12.658Z,9.40
2023-04-22T06:05:01.919Z,9.60
2023-04-22T06:07:49.957Z,9.80
2023-04-22T06:10:37.554Z,10.10
2023-04-22T06:13:27.634Z,10.30
2023-04-22T06:16:15.057Z,10.50
2023-04-22T06:19:02.590Z,10.70
2023-04-22T06:21:51.508Z,10.90
2023-04-22T06:24:39.276Z,11.10
2023-04-22T06:27:27.087Z,11.30
2023-04-22T06:30:16.462Z,11.50
2023-04-22T06:33:03.947Z,11.80
2023-04-22T06:35:51.780Z,11.90
2023-04-22T06:38:39.620Z,12.10
2023-04-22T06:41:50.200Z,12.40
2023-04-22T06:44:56.648Z,12.60
2023-04-22T06:47:56.125Z,12.70
2023-04-22T06:50:49.899Z,12.90
2023-04-22T06:53:37.967Z,13.10
2023-04-22T06:56:26.097Z,13.30
2023-04-22T06:59:13.617Z,13.50
2023-04-22T07:02:01.428Z,13.80
2023-04-22T07:04:53.117Z,14.00
2023-04-22T07:07:40.876Z,14.20
2023-04-22T07:10:33.096Z,14.40
2023-04-22T07:13:40.798Z,14.60
2023-04-22T07:16:28.737Z,14.80
2023-04-22T07:19:16.499Z,15.00
2023-04-22T07:22:06.338Z,15.30
2023-04-22T07:24:54.041Z,15.60
2023-04-22T07:27:41.891Z,15.80
2023-04-22T07:30:29.797Z,15.90
2023-04-22T07:33:17.504Z,16.10
2023-04-22T07:36:05.337Z,16.40
2023-04-22T07:38:54.547Z,16.70
2023-04-22T07:41:42.122Z,16.90
2023-04-22T07:44:29.821Z,17.10
2023-04-22T07:47:17.736Z,17.20
2023-04-22T07:50:05.873Z,17.30
2023-04-22T07:52:53.483Z,17.50
2023-04-22T07:55:42.418Z,17.60
2023-04-22T07:58:30.175Z,17.80
2023-04-22T08:01:19.443Z,18.00
2023-04-22T08:04:08.278Z,18.00
2023-04-22T08:06:56.433Z,18.00
2023-04-22T08:09:45.306Z,18.20
2023-04-22T08:12:34.194Z,18.50
2023-04-22T08:15:21.861Z,18.70
2023-04-22T08:18:09.524Z,18.80
2023-04-22T08:20:57.556Z,18.90
2023-04-22T08:23:44.973Z,19.10
2023-04-22T08:26:32.251Z,19.30
2023-04-22T08:29:21.675Z,19.40
2023-04-22T08:32:09.158Z,19.50
2023-04-22T08:35:03.995Z,19.80
2023-04-22T08:37:52.856Z,19.90
2023-04-22T08:40:42.388Z,20.10
2023-04-22T08:43:30.394Z,20.30
2023-04-22T08:46:21.248Z,20.60
2023-04-22T08:49:09.643Z,20.70
2023-04-22T08:51:57.300Z,20.90
2023-04-22T08:54:44.866Z,21.10
2023-04-22T08:57:33.224Z,21.20
2023-04-22T09:00:21.300Z,21.30
2023-04-22T09:03:10.956Z,21.40
2023-04-22T09:06:00.398Z,21.60
2023-04-22T09:08:50.170Z,21.70
2023-04-22T09:11:38.285Z,21.70
2023-04-22T09:14:26.785Z,21.90
2023-04-22T09:17:18.773Z,21.90
2023-04-22T09:20:09.860Z,22.00
2023-04-22T09:22:58.888Z,22.20
2023-04-22T09:25:47.284Z,22.40
2023-04-22T09:28:38.391Z,22.50
2023-04-22T09:31:26.804Z,22.40
2023-04-22T09:34:15.044Z,22.60
2023-04-22T09:37:04.227Z,22.80
2023-04-22T09:39:53.175Z,23.00
2023-04-22T09:42:51.141Z,23.00
2023-04-22T09:45:40.521Z,23.00
2023-04-22T09:48:28.210Z,23.10
2023-04-22T09:51:17.432Z,23.30
2023-04-22T09:54:09.893Z,23.50
2023-04-22T09:56:57.410Z,23.70
2023-04-22T09:59:44.879Z,23.80
2023-04-22T10:02:32.884Z,24.10
2023-04-22T10:05:20.832Z,24.20
2023-04-22T10:08:09.627Z,24.10
2023-04-22T10:10:58.637Z,24.30
2023-04-22T10:13:46.304Z,24.40
2023-04-22T10:16:35.762Z,24.60
2023-04-22T10:19:25.295Z,24.60
2023-04-22T10:22:14.117Z,24.40
2023-04-22T10:25:01.939Z,24.30
2023-04-22T10:27:56.478Z,24.50
2023-04-22T10:30:44.269Z,24.80
2023-04-22T10:33:39.541Z,24.80
2023-04-22T10:36:27.789Z,24.70
2023-04-22T10:39:19.145Z,24.70
2023-04-22T10:42:11.071Z,24.70
2023-04-22T10:45:04.394Z,24.60
2023-04-22T10:47:52.220Z,24.40
2023-04-22T10:50:39.998Z,24.40
2023-04-22T10:53:40.705Z,24.70
2023-04-22T10:56:28.282Z,24.80
2023-04-22T10:59:20.326Z,24.70
2023-04-22T11:02:10.341Z,25.00
2023-04-22T11:05:20.037Z,25.20
2023-04-22T11:08:09.181Z,25.20
2023-04-22T11:11:10.123Z,25.40
2023-04-22T11:13:58.841Z,25.50
2023-04-22T11:16:48.424Z,25.30
2023-04-22T11:19:37.391Z,25.50
2023-04-22T11:22:25.701Z,25.80
2023-04-22T11:25:13.314Z,25.80
2023-04-22T11:28:01.263Z,25.80
2023-04-22T11:30:48.511Z,25.90
2023-04-22T11:33:38.583Z,26.20
2023-04-22T11:36:27.745Z,26.20
2023-04-22T11:39:17.363Z,26.10
2023-04-22T11:42:06.408Z,26.20
2023-04-22T11:44:54.058Z,26.40
2023-04-22T11:47:42.501Z,26.30
2023-04-22T11:50:32.694Z,26.00
2023-04-22T11:53:24.373Z,25.90
2023-04-22T11:56:12.185Z,26.00
2023-04-22T11:58:59.643Z,26.00
2023-04-22T12:01:48.681Z,25.80
2023-04-22T12:04:40.569Z,26.00
2023-04-22T12:07:28.748Z,26.30
2023-04-22T12:10:17.691Z,26.60
2023-04-22T12:13:05.253Z,26.80
2023-04-22T12:15:56.487Z,26.90
2023-04-22T12:18:50.819Z,26.80
2023-04-22T12:21:38.342Z,26.60
2023-04-22T12:24:29.284Z,26.40
2023-04-22T12:27:18.382Z,26.30
2023-04-22T12:30:08.377Z,26.00
2023-04-22T12:32:56.247Z,26.30
2023-04-22T12:35:43.747Z,26.50
2023-04-22T12:38:31.264Z,26.70
2023-04-22T12:41:18.998Z,26.90
2023-04-22T12:44:08.294Z,26.80
2023-04-22T12:46:55.778Z,26.70
2023-04-22T12:49:46.408Z,26.50
2023-04-22T12:52:36.730Z,26.20
2023-04-22T12:55:24.337Z,26.20
2023-04-22T12:58:12.241Z,26.10
2023-04-22T13:01:01.333Z,26.40
2023-04-22T13:03:53.338Z,26.60
2023-04-22T13:06:44.131Z,26.60
2023-04-22T13:09:32.264Z,26.40
2023-04-22T13:12:19.781Z,26.40
2023-04-22T13:15:08.742Z,26.60
2023-04-22T13:17:57.821Z,26.90
2023-04-22T13:20:45.538Z,27.10
2023-04-22T13:23:33.921Z,27.20
2023-04-22T13:26:21.446Z,27.10
2023-04-22T13:29:14.130Z,27.10
2023-04-22T13:32:01.825Z,27.10
2023-04-22T13:34:50.588Z,27.10
2023-04-22T13:37:38.241Z,27.10
2023-04-22T13:40:26.782Z,27.00
2023-04-22T13:43:14.612Z,27.10
2023-04-22T13:46:02.023Z,27.20
2023-04-22T13:48:49.526Z,27.00
2023-04-22T13:51:39.756Z,27.10
2023-04-22T13:54:28.118Z,27.30
2023-04-22T13:57:15.835Z,27.40
2023-04-22T14:00:03.822Z,27.40
2023-04-22T14:02:59.602Z,27.30
2023-04-22T14:05:47.448Z,27.00
2023-04-22T14:08:36.352Z,27.00
2023-04-22T14:11:23.839Z,27.00
2023-04-22T14:14:11.308Z,26.90
2023-04-22T14:16:59.020Z,26.80
2023-04-22T14:19:46.737Z,26.70
2023-04-22T14:22:34.332Z,26.80
2023-04-22T14:25:23.665Z,27.00
2023-04-22T14:28:11.392Z,27.10
2023-04-22T14:30:59.734Z,27.20
2023-04-22T14:33:47.468Z,27.40
2023-04-22T14:36:35.501Z,27.40
2023-04-22T14:39:23.123Z,27.50
2023-04-22T14:42:11.896Z,27.60
2023-04-22T14:45:00.197Z,27.60
2023-04-22T14:47:47.911Z,27.50
2023-04-22T14:50:35.431Z,27.50
2023-04-22T14:53:23.495Z,27.20
2023-04-22T14:56:12.028Z,27.20
2023-04-22T14:59:01.644Z,27.30
2023-04-22T15:01:49.522Z,27.50
2023-04-22T15:04:37.094Z,27.60
2023-04-22T15:07:24.905Z,27.70
2023-04-22T15:10:12.810Z,28.00
2023-04-22T15:13:01.537Z,28.40
2023-04-22T15:15:50.524Z,28.70
2023-04-22T15:18:38.320Z,28.80
2023-04-22T15:21:26.652Z,28.90
2023-04-22T15:24:13.988Z,28.80
2023-04-22T15:27:03.071Z,28.60
2023-04-22T15:29:51.005Z,28.60
2023-04-22T15:32:40.316Z,28.80
2023-04-22T15:35:27.949Z,29.00
2023-04-22T15:38:15.702Z,28.80
2023-04-22T15:41:03.523Z,28.70
2023-04-22T15:43:52.253Z,28.70
2023-04-22T15:46:40.147Z,28.90
2023-04-22T15:49:29.176Z,28.80
2023-04-22T15:52:18.270Z,28.80
2023-04-22T15:55:06.089Z,29.00
2023-04-22T15:57:53.854Z,28.90
2023-04-22T16:00:41.663Z,28.20
2023-04-22T16:03:29.376Z,27.60
2023-04-22T16:06:18.717Z,27.40
2023-04-22T16:09:06.679Z,27.10
2023-04-22T16:11:56.016Z,27.00
2023-04-22T16:14:43.394Z,26.70
2023-04-22T16:17:31.506Z,26.10
2023-04-22T16:20:18.968Z,25.70
2023-04-22T16:23:08.066Z,25.10
2023-04-22T16:25:56.265Z,24.30
2023-04-22T16:28:43.665Z,23.60
2023-04-22T16:31:31.397Z,22.90
2023-04-22T16:34:18.944Z,22.40
2023-04-22T16:37:07.652Z,21.70
2023-04-22T16:39:56.784Z,21.30
2023-04-22T16:42:44.287Z,21.00
2023-04-22T16:45:31.830Z,20.80
2023-04-22T16:48:19.438Z,20.60
2023-04-22T16:51:06.872Z,20.30
2023-04-22T16:53:54.369Z,20.10
2023-04-22T16:56:43.326Z,19.80
2023-04-22T16:59:31.214Z,19.70
2023-04-22T17:02:19.068Z,19.50
2023-04-22T17:05:07.078Z,19.40
2023-04-22T17:07:54.764Z,19.30
2023-04-22T17:10:45.423Z,19.40
2023-04-22T17:13:34.353Z,19.60
2023-04-22T17:16:21.976Z,19.50
2023-04-22T17:19:09.985Z,19.30
2023-04-22T17:21:57.761Z,19.10
2023-04-22T17:24:45.449Z,18.80
2023-04-22T17:27:33.025Z,18.50
2023-04-22T17:30:22.128Z,18.20
2023-04-22T17:33:10.048Z,17.90
2023-04-22T17:35:57.710Z,17.70
2023-04-22T17:38:46.014Z,17.40
2023-04-22T17:41:34.061Z,17.20
2023-04-22T17:44:21.602Z,16.90
2023-04-22T17:47:10.664Z,16.70
2023-04-22T17:49:58.271Z,16.40
2023-04-22T17:52:45.727Z,16.20
2023-04-22T17:55:35.296Z,16.00
2023-04-22T17:58:22.851Z,15.70
2023-04-22T18:01:10.627Z,15.50
2023-04-22T18:03:59.664Z,15.30
2023-04-22T18:06:47.502Z,15.00
2023-04-22T18:09:35.024Z,14.90
2023-04-22T18:12:25.758Z,14.60
2023-04-22T18:15:13.134Z,14.40
2023-04-22T18:18:01.404Z,14.20
2023-04-22T18:20:50.478Z,14.00
2023-04-22T18:23:38.492Z,13.80
2023-04-22T18:26:26.469Z,13.60
2023-04-22T18:29:13.954Z,13.40
2023-04-22T18:32:03.085Z,13.30
2023-04-22T18:34:50.938Z,13.10
2023-04-22T18:37:39.691Z,13.00
2023-04-22T18:40:27.303Z,12.80
2023-04-22T18:43:14.911Z,12.70
2023-04-22T18:46:02.926Z,12.60
2023-04-22T18:48:52.513Z,12.50
2023-04-22T18:51:42.077Z,12.30
2023-04-22T18:54:31.407Z,12.20
2023-04-22T18:57:19.247Z,12.10
2023-04-22T19:00:08.447Z,12.00
2023-04-22T19:02:56.313Z,11.80
2023-04-22T19:05:44.642Z,11.70
2023-04-22T19:08:32.306Z,11.60
2023-04-22T19:11:21.256Z,11.50
2023-04-22T19:14:09.345Z,11.40
2023-04-22T19:16:56.970Z,11.20
2023-04-22T19:19:45.446Z,11.10
2023-04-22T19:22:34.197Z,11.00
2023-04-22T19:25:22.084Z,10.90
2023-04-22T19:28:11.107Z,10.80
2023-04-22T19:31:00.209Z,10.70
2023-04-22T19:33:48.571Z,10.60
2023-04-22T19:36:36.508Z,10.50
2023-04-22T19:39:24.502Z,10.40
2023-04-22T19:42:11.999Z,10.30
2023-04-22T19:45:01.140Z,10.20
2023-04-22T19:47:49.030Z,10.10
2023-04-22T19:50:37.319Z,10.00
2023-04-22T19:53:25.718Z,10.00
2023-04-22T19:56:13.958Z,9.90
2023-04-22T19:59:01.855Z,9.70
2023-04-22T20:01:51.614Z,9.60
2023-04-22T20:04:39.296Z,9.50
2023-04-22T20:07:27.897Z,9.40
2023-04-22T20:10:16.715Z,9.30
2023-04-22T20:13:05.626Z,9.20
2023-04-22T20:15:53.883Z,9.10
2023-04-22T20:18:43.407Z,9.10
2023-04-22T20:21:32.597Z,9.00
2023-04-22T20:24:20.643Z,8.90
2023-04-22T20:27:08.830Z,8.80
2023-04-22T20:29:57.193Z,8.80
2023-04-22T20:32:44.922Z,8.70
2023-04-22T20:35:35.745Z,8.60
2023-04-22T20:38:24.655Z,8.60
2023-04-22T20:41:13.425Z,8.50
2023-04-22T20:44:00.868Z,8.40
2023-04-22T20:46:48.807Z,8.30
2023-04-22T20:49:40.433Z,8.30
2023-04-22T20:52:29.397Z,8.20
2023-04-22T20:55:17.382Z,8.10
2023-04-22T20:58:04.740Z,8.00
2023-04-22T21:00:52.537Z,7.90
2023-04-22T21:03:41.137Z,7.80
2023-04-22T21:06:32.158Z,7.80
2023-04-22T21:09:21.839Z,7.70
2023-04-22T21:12:10.782Z,7.60
2023-04-22T21:14:59.108Z,7.60
2023-04-22T21:17:56.516Z,7.50
2023-04-22T21:20:46.445Z,7.50
2023-04-22T21:23:35.206Z,7.50
2023-04-22T21:26:25.228Z,7.40
2023-04-22T21:29:13.293Z,7.40
2023-04-22T21:32:08.255Z,7.30
2023-04-22T21:34:56.855Z,7.20
2023-04-22T21:37:44.457Z,7.20
2023-04-22T21:40:32.384Z,7.10
2023-04-22T21:43:21.511Z,7.10
2023-04-22T21:46:09.416Z,7.00
2023-04-22T21:48:57.161Z,7.00
2023-04-22T21:51:44.519Z,6.90
2023-04-22T21:54:31.718Z,6.90
2023-04-22T21:57:18.941Z,6.80
2023-04-22T22:00:15.579Z,6.80
2023-04-22T22:03:02.959Z,6.70
2023-04-22T22:05:53.603Z,6.60
2023-04-22T22:08:41.527Z,6.60
2023-04-22T22:11:31.320Z,6.60
2023-04-22T22:14:18.797Z,6.50
2023-04-22T22:17:08.432Z,6.50
2023-04-22T22:19:57.114Z,6.40
2023-04-22T22:22:46.241Z,6.40
2023-04-22T22:25:33.430Z,6.40
2023-04-22T22:28:21.149Z,6.30
2023-04-22T22:31:08.607Z,6.30
2023-04-22T22:33:57.516Z,6.20
2023-04-22T22:36:44.596Z,6.10
2023-04-22T22:39:31.969Z,6.10
2023-04-22T22:42:19.587Z,6.10
2023-04-22T22:45:08.061Z,6.10
2023-04-22T22:47:55.934Z,6.00
2023-04-22T22:50:46.768Z,6.00
2023-04-22T22:53:36.371Z,6.00
2023-04-22T22:56:24.279Z,5.90
2023-04-22T22:59:12.166Z,5.90
2023-04-22T23:02:00.290Z,5.90
2023-04-22T23:04:47.860Z,5.80
2023-04-22T23:07:37.142Z,5.80
2023-04-22T23:10:24.517Z,5.80
2023-04-22T23:13:12.165Z,5.70
2023-04-22T23:15:59.652Z,5.70
2023-04-22T23:18:47.890Z,5.60
2023-04-22T23:21:36.929Z,5.60
2023-04-22T23:24:26.393Z,5.60
2023-04-22T23:27:14.332Z,5.50
2023-04-22T23:30:02.714Z,5.50
2023-04-22T23:32:53.187Z,5.50
2023-04-22T23:35:42.843Z,5.50
2023-04-22T23:38:30.505Z,5.50
2023-04-22T23:41:19.875Z,5.50
2023-04-22T23:44:07.598Z,5.50
2023-04-22T23:46:55.106Z,5.40
2023-04-22T23:49:42.788Z,5.40
2023-04-22T23:52:30.178Z,5.30
2023-04-22T23:55:20.635Z,5.30
2023-04-22T23:58:10.164Z,5.30
